Bay Islands (Utila), Honduras
Current Conditions -  °F | °C
As of 9:00 PM on Friday 24 Oct 2014 (Local Time) from MHLC Reporting Station
Broken Clouds Broken Clouds  
Wind Chill: 27°   Ceiling: 8000
Heat Index: 30°   Visibility: 6mi
Dew Point: 23°   Wind: 2mph
Humidity: 79%   Direction: NA
Pressure: 29.85"   Gusts: NA
Location:  16.1°N, 86.95°W
Report Text: MHLC 250300Z VRB02KT 9999 SCT024CB BKN080 27/23 Q1011 A2987NOSIG
Loading
Personal Weather Stations






























Interactive Weather Map
Tropical Storm Tracking
New forecast layout! Learn more

10-Day Weather Forecast

Advertisements
Track Severe Weather on mobile